Flight Track Log - Related Links

Times and Time Zones

All times are in EDT time to prevent confusion due to time zone crossing. See the BAW747 flight status page for this flight to view local times or setup timezone preferences in your user account.

Time Position Orientation Groundspeed Altitude Reporting Facility
EDT Latitude Longitude Course Direction KTS MPH feet Rate Location/Type
Sun 02:43:06 PM 58.8900 5.6370 90° East 72 83  Level FlightAware ADS-B
Sun 02:43:26 PM 58.8780 5.6380 178° South 147 169 1,429 Level FlightAware ADS-B
Sun 02:43:48 PM 58.8630 5.6380 180° South 140 161 1,000 2,478 Climbing FlightAware ADS-B
Sun 02:44:12 PM 58.8460 5.6360 183° South 165 190 1,900 2,087 Climbing FlightAware ADS-B
Sun 02:44:34 PM 58.8280 5.6350 182° South 192 221 2,600 2,143 Climbing FlightAware ADS-B
Sun 02:44:54 PM 58.8090 5.6340 182° South 220 253 3,400 2,700 Climbing FlightAware ADS-B
Sun 02:45:14 PM 58.7870 5.6270 189° South 250 288 4,400 3,600 Climbing FlightAware ADS-B
Sun 02:45:34 PM 58.7630 5.6190 190° South 264 304 5,800 4,227 Climbing FlightAware ADS-B
Sun 02:45:58 PM 58.7340 5.6100 189° South 276 318 7,500 3,346 Climbing FlightAware ADS-B
Sun 02:46:26 PM 58.6960 5.5970 190° South 315 362 8,700 2,375 Climbing FlightAware ADS-B
Sun 02:46:46 PM 58.6660 5.5880 189° South 343 395 9,400 2,893 Climbing FlightAware ADS-B
Sun 02:47:22 PM 58.6080 5.5680 190° South 362 417 11,400 3,265 Climbing FlightAware ADS-B
Sun 02:47:54 PM 58.5530 5.5510 189° South 378 435 13,100 3,353 Climbing FlightAware ADS-B
Sun 02:48:30 PM 58.4910 5.5310 190° South 383 441 15,200 3,041 Climbing FlightAware ADS-B
Sun 02:49:07 PM 58.4270 5.5100 190° South 400 460 16,800 2,829 Climbing FlightAware ADS-B
Sun 02:49:40 PM 58.3650 5.4900 190° South 406 467 18,500 2,789 Climbing FlightAware ADS-B
Sun 02:50:18 PM 58.2940 5.4680 189° South 418 481 20,100 2,486 Climbing FlightAware ADS-B
Sun 02:50:50 PM 58.2320 5.4480 190° South 427 491 21,400 2,333 Climbing FlightAware ADS-B
Sun 02:51:30 PM 58.1540 5.4230 190° South 437 503 22,900 2,143 Climbing FlightAware ADS-B
Sun 02:52:00 PM 58.0920 5.4080 187° South 446 513 23,900 1,969 Climbing FlightAware ADS-B
Sun 02:52:34 PM 58.0210 5.3960 185° South 456 525 25,000 1,800 Climbing FlightAware ADS-B
Sun 02:53:10 PM 57.9460 5.3830 185° South 466 536 26,000 1,917 Climbing FlightAware ADS-B
Sun 02:53:46 PM 57.8670 5.3710 185° South 471 542 27,300 2,083 Climbing FlightAware ADS-B
Sun 02:54:22 PM 57.7880 5.3570 185° South 471 542 28,500 1,667 Climbing FlightAware ADS-B
Sun 02:54:58 PM 57.7120 5.3420 186° South 479 551 29,300 1,676 Climbing FlightAware ADS-B
Sun 02:55:30 PM 57.6390 5.3280 186° South 478 550 30,400 2,053 Climbing FlightAware ADS-B
Sun 02:56:14 PM 57.5450 5.3090 186° South 472 543 31,900 1,737 Climbing FlightAware ADS-B
Sun 02:56:46 PM 57.4780 5.2960 186° South 477 549 32,600 1,826 Climbing FlightAware ADS-B
Sun 02:57:23 PM 57.3940 5.2800 186° South 469 540 34,000 2,270 Climbing FlightAware ADS-B
Sun 02:58:00 PM 57.3150 5.2600 188° South 461 531 35,400 1,846 Climbing FlightAware ADS-B
Sun 02:58:28 PM 57.2580 5.2410 190° South 463 533 36,000 1,478 Climbing FlightAware ADS-B
Sun 02:59:09 PM 57.1700 5.2110 190° South 460 529 37,100 1,562 Climbing FlightAware ADS-B
Sun 02:59:41 PM 57.1030 5.1880 191° South 455 524 37,900 771 Climbing FlightAware ADS-B
Sun 03:00:19 PM 57.0270 5.1630 190° South 455 524 38,000 83 Climbing FlightAware ADS-B
Sun 03:00:53 PM 56.9550 5.1330 193° South 457 526 38,000  Level FlightAware ADS-B
Sun 03:01:26 PM 56.8910 5.0990 196° South 458 527 38,000  Level FlightAware ADS-B
Sun 03:01:59 PM 56.8220 5.0630 196° South 459 528 38,000  Level FlightAware ADS-B
Sun 03:02:39 PM 56.7400 5.0210 196° South 459 528 38,000  Level FlightAware ADS-B
Sun 03:03:12 PM 56.6740 4.9860 196° South 460 529 38,000  Level FlightAware ADS-B
Sun 03:03:47 PM 56.6030 4.9500 196° South 460 529 38,000  Level FlightAware ADS-B
Sun 03:04:21 PM 56.5320 4.9130 196° South 461 531 38,000  Level FlightAware ADS-B
Sun 03:04:58 PM 56.4560 4.8740 196° South 460 529 38,000  Level FlightAware ADS-B
Sun 03:05:33 PM 56.3850 4.8380 196° South 461 531 38,000  Level FlightAware ADS-B
Sun 03:06:05 PM 56.3190 4.8040 196° South 462 532 38,000  Level FlightAware ADS-B
Sun 03:06:07 PM 56.3113 4.7982 196° South 1 1 38,000  Level FlightAware UK
Sun 03:06:42 PM 56.2430 4.7650 196° South 462 532 38,000  Level FlightAware ADS-B
Sun 03:07:17 PM 56.1720 4.7290 196° South 463 533 38,000  Level FlightAware ADS-B
Sun 03:07:44 PM 56.1150 4.7000 196° South 463 533 38,000  Level FlightAware ADS-B
Sun 03:08:28 PM 56.0250 4.6560 195° South 463 533 38,000  Level FlightAware ADS-B
Sun 03:08:59 PM 55.9650 4.6250 196° South 463 533 38,000  Level FlightAware ADS-B
Sun 03:09:35 PM 55.8870 4.5870 196° South 463 533 38,000  Level FlightAware ADS-B
Sun 03:09:37 PM 55.8795 4.5819 196° South 454 522 38,000  Level FlightAware UK
Sun 03:10:10 PM 55.8240 4.5550 196° South 455 524 38,000  Level FlightAware ADS-B
Sun 03:10:45 PM 55.7490 4.5180 196° South 454 522 38,000  Level FlightAware ADS-B
Sun 03:11:20 PM 55.6750 4.4820 195° South 453 521 38,000  Level FlightAware ADS-B
Sun 03:11:55 PM 55.6110 4.4500 196° South 453 521 38,000  Level FlightAware ADS-B
Sun 03:12:30 PM 55.5310 4.4110 196° South 454 522 38,000  Level FlightAware ADS-B
Sun 03:12:31 PM 55.5219 4.4069 196° South 450 518 38,000  Level FlightAware UK
Sun 03:13:05 PM 55.4620 4.3780 196° South 454 522 38,000 -167 Level FlightAware ADS-B
Sun 03:13:07 PM 55.4483 4.3706 196° South 452 520 37,900  Descending FlightAware UK
Sun 03:13:40 PM 55.3900 4.3430 196° South 464 534 38,000  Climbing FlightAware ADS-B
Sun 03:13:43 PM 55.3747 4.3351 196° South 452 520 37,900 -182 Descending FlightAware UK
Sun 03:14:13 PM 55.3126 4.3044 196° South 454 522 37,900 118 Level FlightAware UK
Sun 03:14:34 PM 55.2790 4.2890 196° South 464 534 38,000 103 Climbing FlightAware ADS-B
Sun 03:15:11 PM 55.2020 4.2520 196° South 464 534 38,000  Level FlightAware ADS-B
Sun 03:15:13 PM 55.1886 4.2446 196° South 452 520 38,000  Level FlightAware UK
Sun 03:15:49 PM 55.1139 4.2091 196° South 452 520 38,000  Level FlightAware UK
Sun 03:15:49 PM 55.1200 4.2130 196° South 465 535 38,000  Level FlightAware ADS-B
Sun 03:16:24 PM 55.0550 4.1810 196° South 466 536 38,000  Level FlightAware ADS-B
Sun 03:16:59 PM 54.9800 4.1460 195° South 467 537 38,000  Level FlightAware ADS-B
Sun 03:17:31 PM 54.9025 4.1084 195° South 452 520 38,000  Level FlightAware UK
Sun 03:17:34 PM 54.9030 4.1100 195° South 468 539 38,000  Level FlightAware ADS-B
Sun 03:18:13 PM 54.8200 4.0700 196° South 469 540 38,000  Level FlightAware ADS-B
Sun 03:18:44 PM 54.7600 4.0420 195° South 469 540 38,000  Level FlightAware ADS-B
Sun 03:19:23 PM 54.6770 4.0030 195° South 470 541 38,000  Level FlightAware ADS-B
Sun 03:20:00 PM 54.5960 3.9660 195° South 472 543 38,000  Level FlightAware ADS-B
Sun 03:20:07 PM 54.5754 3.9556 195° South 454 522 38,000  Level FlightAware UK
Sun 03:20:37 PM 54.5120 3.9266 195° South 454 522 38,000  Level FlightAware UK
Sun 03:20:37 PM 54.5230 3.9320 195° South 472 543 38,000  Level FlightAware ADS-B
Sun 03:21:14 PM 54.4390 3.8930 195° South 473 544 38,000  Level FlightAware ADS-B
Sun 03:21:55 PM 54.3530 3.8540 195° South 473 544 38,000  Level FlightAware ADS-B
Sun 03:22:25 PM 54.2844 3.8220 195° South 454 522 38,000  Level FlightAware UK
Sun 03:22:26 PM 54.2870 3.8230 195° South 472 543 38,000  Level FlightAware ADS-B (KAPA)
Sun 03:22:58 PM 54.2200 3.7920 195° South 473 544 38,000  Level FlightAware ADS-B (KAPA)
Sun 03:23:01 PM 54.2090 3.7873 195° South 452 520 38,000  Level FlightAware UK
Sun 03:23:31 PM 54.1455 3.7578 195° South 448 516 38,000  Level FlightAware UK
Sun 03:23:34 PM 54.1430 3.7560 195° South 470 541 38,000  Level FlightAware ADS-B (KAPA)
Sun 03:24:09 PM 54.0720 3.7240 195° South 470 541 38,000  Level FlightAware ADS-B (KAPA)
Sun 03:24:43 PM 54.0000 3.6920 195° South 473 544 38,000  Level FlightAware ADS-B (KAPA)
Sun 03:25:17 PM 53.9300 3.6620 194° South 476 548 38,000  Level FlightAware ADS-B (KAPA)
Sun 03:25:57 PM 53.8450 3.6250 194° South 478 550 38,000 -234 Level FlightAware ADS-B
Sun 03:26:34 PM 53.7630 3.5890 195° South 479 551 37,700 -771 Descending FlightAware ADS-B
Sun 03:27:07 PM 53.6877 3.5552 195° South 446 513 37,100 -909 Descending FlightAware UK
Sun 03:27:07 PM 53.6940 3.5570 195° South 475 547 37,200 -1,000 Climbing FlightAware ADS-B
Sun 03:27:37 PM 53.6243 3.5237 195° South 446 513 36,600 -1,000 Descending FlightAware UK
Sun 03:27:43 PM 53.6220 3.5210 195° South 481 554 36,600 -714 Level FlightAware ADS-B
Sun 03:28:19 PM 53.5470 3.4660 204° Southwest 487 560 36,100 -514 Descending FlightAware ADS-B
Sun 03:28:53 PM 53.4780 3.3950 211° Southwest 492 566 36,000 -91 Descending FlightAware ADS-B
Sun 03:29:25 PM 53.4190 3.3320 212° Southwest 491 565 36,000  Level FlightAware ADS-B
Sun 03:29:55 PM 53.3545 3.2637 212° Southwest 448 516 36,000  Level FlightAware UK
Sun 03:30:02 PM 53.3460 3.2580 212° Southwest 488 562 36,000  Level FlightAware ADS-B
Sun 03:30:33 PM 53.2820 3.2120 203° Southwest 484 557 36,000  Level FlightAware ADS-B
Sun 03:31:09 PM 53.2100 3.1620 203° Southwest 475 547 36,000  Level FlightAware ADS-B
Sun 03:31:43 PM 53.1318 3.1082 203° Southwest 446 513 36,000  Level FlightAware UK
Sun 03:31:45 PM 53.1410 3.1140 203° Southwest 475 547 36,000 -167 Level FlightAware ADS-B
Sun 03:32:19 PM 53.0582 3.0574 203° Southwest 446 513 35,900  Descending FlightAware UK
Sun 03:32:24 PM 53.0530 3.0540 203° Southwest 483 556 36,000 -267 Climbing FlightAware ADS-B
Sun 03:33:04 PM 52.9730 2.9990 202° Southwest 484 557 35,700 -640 Descending FlightAware ADS-B
Sun 03:33:39 PM 52.8990 2.9500 202° Southwest 487 560 35,200 -943 Descending FlightAware ADS-B
Sun 03:34:14 PM 52.8270 2.9030 202° Southwest 485 558 34,600 -1,000 Descending FlightAware ADS-B
Sun 03:34:45 PM 52.7650 2.8630 201° Southwest 483 556 34,100 -923 Descending FlightAware ADS-B
Sun 03:35:19 PM 52.6940 2.8170 201° Southwest 486 559 33,600 -973 Descending FlightAware ADS-B
Sun 03:35:59 PM 52.6110 2.7640 201° Southwest 483 556 32,900 -1,143 Descending FlightAware ADS-B
Sun 03:36:01 PM 52.5959 2.7536 201° Southwest 452 520 32,800 -1,000 Descending FlightAware UK
Sun 03:36:35 PM 52.5310 2.7130 201° Southwest 484 557 32,300 -1,000 Descending FlightAware ADS-B
Sun 03:37:07 PM 52.4559 2.6656 201° Southwest 454 522 31,700 -1,143 Descending FlightAware UK
Sun 03:37:17 PM 52.4390 2.6590 201° Southwest 483 556 31,500 -818 Descending FlightAware ADS-B
Sun 03:37:51 PM 52.3690 2.6260 196° South 450 518 31,100 -1,217 Descending FlightAware ADS-B
Sun 03:38:26 PM 52.3010 2.5930 197° South 425 489 30,100 -917 Descending FlightAware ADS-B
Sun 03:39:03 PM 52.2350 2.5610 197° South 430 495 30,000 -387 Descending FlightAware ADS-B
Sun 03:39:28 PM 52.1831 2.5366 196° South 426 490 29,700 -1,313 Descending FlightAware ADS-B
Sun 03:40:07 PM 52.1065 2.4996 196° South 388 447 28,600 -1,571 Descending FlightAware UK
Sun 03:40:10 PM 52.1090 2.5010 196° South 414 476 28,600 -1,833 Level FlightAware ADS-B
Sun 03:40:43 PM 52.0415 2.4688 196° South 382 440 27,500 -1,667 Descending FlightAware UK
Sun 03:40:46 PM 52.0450 2.4710 196° South 409 471 27,600 -1,579 Climbing FlightAware ADS-B
Sun 03:41:21 PM 51.9800 2.4410 196° South 401 461 26,500 -1,352 Descending FlightAware ADS-B
Sun 03:41:57 PM 51.9130 2.4100 196° South 401 461 26,000 -514 Descending FlightAware ADS-B
Sun 03:42:31 PM 51.8497 2.3732 196° South 374 430 25,900  Descending FlightAware UK
Sun 03:42:31 PM 51.8540 2.3780 196° South 402 463 26,000 -414 Climbing FlightAware ADS-B
Sun 03:43:00 PM 51.8140 2.3200 222° Southwest 399 459 25,700 -638 Descending FlightAware ADS-B
Sun 03:43:18 PM 51.8000 2.2740 244° Southwest 394 453 25,500 -566 Descending FlightAware ADS-B
Sun 03:43:53 PM 51.7900 2.1700 261° West 389 448 25,200 -526 Descending FlightAware ADS-B
Sun 03:44:15 PM 51.7848 2.1066 262° West 389 448 25,000 -200 Descending FlightAware ADS-B
Sun 03:44:53 PM 51.7767 1.9966 263° West 390 449 25,000  Level FlightAware ADS-B
Sun 03:45:23 PM 51.7703 1.9096 263° West 390 449 25,000 -554 Level FlightAware ADS-B
Sun 03:45:58 PM 51.7628 1.8085 263° West 394 453 24,400 -1,754 Descending FlightAware ADS-B
Sun 03:46:28 PM 51.7561 1.7194 263° West 401 461 23,100 -2,459 Descending FlightAware ADS-B
Sun 03:46:59 PM 51.7491 1.6303 263° West 390 449 21,900 -2,286 Descending FlightAware ADS-B
Sun 03:47:31 PM 51.7429 1.5383 264° West 380 437 20,700 -1,875 Descending FlightAware ADS-B
Sun 03:48:03 PM 51.7374 1.4497 264° West 375 432 19,900 -1,500 Descending FlightAware ADS-B
Sun 03:48:39 PM 51.7312 1.3537 264° West 359 413 19,000 -1,588 Descending FlightAware ADS-B
Sun 03:49:11 PM 51.7256 1.2703 264° West 358 412 18,100 -1,548 Descending FlightAware ADS-B
Sun 03:49:41 PM 51.7206 1.1926 264° West 347 399 17,400 -1,500 Descending FlightAware ADS-B
Sun 03:50:15 PM 51.7148 1.1061 264° West 341 392 16,500 -1,595 Descending FlightAware ADS-B
Sun 03:51:00 PM 51.7070 0.9901 264° West 310 357 15,300 -1,435 Descending FlightAware UK
Sun 03:51:01 PM 51.7070 0.9930 264° West 333 383 15,400 -923 Climbing FlightAware ADS-B
Sun 03:51:26 PM 51.7027 0.9310 264° West 332 382 14,900 -986 Descending FlightAware ADS-B
Sun 03:52:14 PM 51.6944 0.8109 264° West 336 387 14,200 -759 Descending FlightAware ADS-B
Sun 03:52:45 PM 51.6893 0.7368 264° West 318 366 13,900 -677 Descending FlightAware ADS-B
Sun 03:53:16 PM 51.6844 0.6675 264° West 298 343 13,500 -968 Descending FlightAware ADS-B
Sun 03:53:47 PM 51.6798 0.6011 264° West 294 338 12,900 -1,080 Descending FlightAware ADS-B
Sun 03:54:06 PM 51.6768 0.5602 263° West 290 334 12,600 -1,347 Descending FlightAware ADS-B
Sun 03:54:36 PM 51.6721 0.4954 263° West 291 335 11,800 -1,300 Descending FlightAware ADS-B
Sun 03:55:06 PM 51.6674 0.4314 263° West 284 327 11,300 -1,161 Descending FlightAware ADS-B
Sun 03:55:38 PM 51.6624 0.3649 263° West 278 320 10,600 -1,300 Descending FlightAware ADS-B
Sun 03:56:06 PM 51.6581 0.3091 263° West 272 313 10,000 -1,467 Descending FlightAware ADS-B
Sun 03:56:23 PM 51.6557 0.2743 264° West 272 313 9,500 -1,588 Descending FlightAware ADS-B
Sun 03:56:40 PM 51.6532 0.2401 263° West 273 314 9,100 -1,543 Descending FlightAware ADS-B
Sun 03:56:58 PM 51.6504 0.2042 263° West 275 316 8,600 -1,455 Descending FlightAware ADS-B
Sun 03:57:13 PM 51.6480 0.1729 263° West 275 316 8,300 -938 Descending FlightAware ADS-B
Sun 03:57:30 PM 51.6455 0.1393 263° West 274 315 8,100 -600 Descending FlightAware ADS-B
Sun 03:57:43 PM 51.6441 0.1116 265° West 277 319 8,000 -207 Descending FlightAware ADS-B
Sun 03:57:59 PM 51.6429 0.0788 267° West 276 318 8,000  Level FlightAware ADS-B
Sun 03:58:16 PM 51.6417 0.0440 267° West 275 316 8,000  Level FlightAware ADS-B
Sun 03:58:32 PM 51.6405 0.0114 267° West 274 315 8,000  Level FlightAware ADS-B
Sun 03:58:48 PM 51.6394 -0.0198 267° West 274 315 8,000  Level FlightAware ADS-B
Sun 03:59:03 PM 51.6382 -0.0516 267° West 275 316 8,000 -214 Level FlightAware ADS-B
Sun 03:59:16 PM 51.6372 -0.0772 266° West 275 316 7,900 -480 Descending FlightAware ADS-B
Sun 03:59:28 PM 51.6362 -0.1024 266° West 274 315 7,800 -643 Descending FlightAware ADS-B
Sun 03:59:44 PM 51.6348 -0.1348 266° West 274 315 7,600 -750 Descending FlightAware ADS-B
Sun 04:00:00 PM 51.6335 -0.1661 266° West 275 316 7,400 -774 Descending FlightAware ADS-B
Sun 04:00:15 PM 51.6323 -0.1970 266° West 274 315 7,200 -600 Descending FlightAware ADS-B
Sun 04:00:30 PM 51.6309 -0.2277 266° West 272 313 7,100 -400 Descending FlightAware ADS-B
Sun 04:00:45 PM 51.6295 -0.2582 266° West 271 312 7,000 -176 Descending FlightAware ADS-B
Sun 04:01:04 PM 51.6278 -0.2951 266° West 271 312 7,000  Level FlightAware ADS-B
Sun 04:01:16 PM 51.6266 -0.3204 266° West 270 311 7,000  Level FlightAware ADS-B
Sun 04:01:32 PM 51.6252 -0.3506 266° West 269 310 7,000  Level FlightAware ADS-B
Sun 04:01:47 PM 51.6238 -0.3813 266° West 269 310 7,000  Level FlightAware ADS-B
Sun 04:02:03 PM 51.6225 -0.4126 266° West 268 308 7,000  Level FlightAware ADS-B
Sun 04:02:19 PM 51.6211 -0.4440 266° West 269 310 7,000  Level FlightAware ADS-B
Sun 04:02:34 PM 51.6197 -0.4754 266° West 268 308 7,000  Level FlightAware ADS-B
Sun 04:02:48 PM 51.6184 -0.5022 266° West 267 307 7,000  Level FlightAware ADS-B
Sun 04:02:53 PM 51.6176 -0.5129 263° West 268 308 7,000 -462 Level FlightAware ADS-B
Sun 04:03:01 PM 51.6157 -0.5285 259° West 269 310 6,900 -1,000 Descending FlightAware ADS-B
Sun 04:03:17 PM 51.6113 -0.5584 257° West 267 307 6,600 -968 Descending FlightAware ADS-B
Sun 04:03:32 PM 51.6068 -0.5874 256° West 264 304 6,400 -600 Descending FlightAware ADS-B
Sun 04:03:47 PM 51.6023 -0.6165 256° West 263 303 6,300 -387 Descending FlightAware ADS-B
Sun 04:04:03 PM 51.5978 -0.6466 256° West 265 305 6,200 -522 Descending FlightAware ADS-B
Sun 04:04:10 PM 51.5957 -0.6599 256° West 266 306 6,100 -857 Descending FlightAware ADS-B
Sun 04:04:17 PM 51.5934 -0.6721 253° West 266 306 6,000 -500 Descending FlightAware ADS-B
Sun 04:04:22 PM 51.5910 -0.6828 250° West 267 307 6,000 -571 Level FlightAware ADS-B
Sun 04:04:38 PM 51.5836 -0.7117 248° West 267 307 5,800 -581 Descending FlightAware ADS-B
Sun 04:04:53 PM 51.5762 -0.7394 247° West 266 306 5,700 -400 Descending FlightAware ADS-B
Sun 04:05:08 PM 51.5691 -0.7665 247° West 262 302 5,600 -400 Descending FlightAware ADS-B
Sun 04:05:23 PM 51.5621 -0.7927 247° West 251 289 5,500 -194 Descending FlightAware ADS-B
Sun 04:05:39 PM 51.5552 -0.8191 247° West 239 275 5,500 -188 Level FlightAware ADS-B
Sun 04:05:55 PM 51.5487 -0.8434 247° West 226 260 5,400 -500 Descending FlightAware ADS-B
Sun 04:06:03 PM 51.5453 -0.8560 247° West 227 261 5,300 -545 Descending FlightAware ADS-B
Sun 04:06:06 PM 51.5436 -0.8614 243° Southwest 226 260 5,300 -1,000 Level FlightAware ADS-B
Sun 04:06:09 PM 51.5420 -0.8657 239° Southwest 224 258 5,200 -857 Descending FlightAware ADS-B
Sun 04:06:13 PM 51.5398 -0.8701 231° Southwest 223 257 5,200 -857 Level FlightAware ADS-B
Sun 04:06:16 PM 51.5373 -0.8740 225° Southwest 221 254 5,100 -750 Descending FlightAware ADS-B
Sun 04:06:21 PM 51.5329 -0.8788 214° Southwest 218 251 5,100 -667 Level FlightAware ADS-B
Sun 04:06:25 PM 51.5297 -0.8812 205° Southwest 216 249 5,000 -750 Descending FlightAware ADS-B
Sun 04:06:29 PM 51.5261 -0.8830 197° South 213 245 5,000  Level FlightAware ADS-B
Sun 04:06:32 PM 51.5226 -0.8839 190° South 210 242 5,000 -1,000 Level FlightAware ADS-B
Sun 04:06:35 PM 51.5197 -0.8844 186° South 209 241 4,900 -1,000 Descending FlightAware ADS-B
Sun 04:06:38 PM 51.5168 -0.8846 183° South 207 238 4,900  Level FlightAware ADS-B
Sun 04:06:42 PM 51.5136 -0.8843 176° South 205 236 4,900 -857 Level FlightAware ADS-B
Sun 04:06:45 PM 51.5107 -0.8833 168° South 202 232 4,800 -857 Descending FlightAware ADS-B
Sun 04:06:49 PM 51.5074 -0.8813 160° South 199 229 4,800 -857 Level FlightAware ADS-B
Sun 04:06:52 PM 51.5047 -0.8790 151° Southeast 197 227 4,700 -857 Descending FlightAware ADS-B
Sun 04:06:56 PM 51.5020 -0.8756 142° Southeast 194 223 4,700 -667 Level FlightAware ADS-B
Sun 04:07:01 PM 51.4991 -0.8710 135° Southeast 193 222 4,600 -857 Descending FlightAware ADS-B
Sun 04:07:17 PM 51.4899 -0.8531 130° Southeast 193 222 4,400 -968 Descending FlightAware ADS-B
Sun 04:07:32 PM 51.4815 -0.8356 128° Southeast 193 222 4,100 -1,143 Descending FlightAware ADS-B
Sun 04:07:38 PM 51.4788 -0.8290 123° Southeast 190 219 4,000 -667 Descending FlightAware ADS-B
Sun 04:07:41 PM 51.4778 -0.8251 112° Southeast 188 216 4,000 -1,000 Level FlightAware ADS-B
Sun 04:07:44 PM 51.4771 -0.8208 105° East 185 213 3,900 -1,000 Descending FlightAware ADS-B
Sun 04:07:47 PM 51.4768 -0.8168 97° East 184 212 3,900 -1,000 Level FlightAware ADS-B
Sun 04:07:50 PM 51.4766 -0.8122 94° East 183 211 3,800 -947 Descending FlightAware ADS-B
Sun 04:08:06 PM 51.4763 -0.7912 91° East 182 209 3,600 -692 Descending FlightAware ADS-B
Sun 04:08:16 PM 51.4763 -0.7780 90° East 181 208 3,500 -600 Descending FlightAware ADS-B
Sun 04:08:26 PM 51.4762 -0.7646 91° East 174 200 3,400 -667 Descending FlightAware ADS-B
Sun 04:08:34 PM 51.4763 -0.7541 89° East 171 197 3,300 -818 Descending FlightAware ADS-B
Sun 04:08:48 PM 51.4763 -0.7373 90° East 169 194 3,100 -1,143 Descending FlightAware ADS-B
Sun 04:08:55 PM 51.4764 -0.7275 89° East 168 193 2,900 -1,043 Descending FlightAware ADS-B
Sun 04:09:11 PM 51.4765 -0.7086 90° East 166 191 2,700 -774 Descending FlightAware ADS-B
Sun 04:09:26 PM 51.4766 -0.6901 89° East 164 189 2,500 -857 Descending FlightAware ADS-B
Sun 04:09:39 PM 51.4767 -0.6743 89° East 162 186 2,300 -857 Descending FlightAware ADS-B
Sun 04:09:54 PM 51.4768 -0.6561 89° East 158 182 2,100 -968 Descending FlightAware ADS-B
Sun 04:10:10 PM 51.4769 -0.6384 89° East 157 181 1,800 -938 Descending FlightAware ADS-B
Sun 04:10:26 PM 51.4770 -0.6194 90° East 155 178 1,600 -774 Descending FlightAware ADS-B
Sun 04:10:41 PM 51.4770 -0.6022 90° East 155 178 1,400 -824 Descending FlightAware ADS-B
Sun 04:11:17 PM 51.4772 -0.5630 90° East 132 152 900 -600 Descending FlightAware UK
Sun 04:11:41 PM 51.4770 -0.5480 90° East 116 133 800 -429 Descending FlightAware ADS-B
Sun 04:11:59 PM 51.4770 -0.5290 90° East 117 135 600 -698 Descending FlightAware ADS-B (CYTZ)
Sun 04:12:24 PM 51.4770 -0.5100 90° East 116 133 300 -612 Descending FlightAware ADS-B (CYTZ)
Sun 04:12:48 PM 51.4770 -0.4880 90° East 120 138 100 -500 Descending FlightAware ADS-B
Sun 04:13:20 PM 51.4770 -0.4630 90° East 120 138 -188 Descending FlightAware ADS-B
Sun 04:15:00 PM 51.4775 -0.4614 64° Northeast  Level Estimated
Sun 04:16:00 PM 51.4775 -0.4614 90° East  Level Estimated
Sun 04:17:00 PM 51.4775 -0.4614 90° East  Level Estimated
Sun 04:18:00 PM 51.4775 -0.4614 90° East  Level Estimated
Sun 04:19:00 PM 51.4775 -0.4614 90° East  Level Estimated
Sun 04:20:00 PM 51.4775 -0.4614 90° East  Level Estimated
Sun 04:21:00 PM 51.4775 -0.4614 90° East  Level Estimated
Sun 04:22:00 PM 51.4775 -0.4614 90° East  Level Estimated
Sun 04:23:00 PM 51.4775 -0.4614 90° East  Level Estimated
Sun 04:24:00 PM 51.4775 -0.4614 90° East  Level Estimated
Sun 04:25:00 PM 51.4775 -0.4614 90° East  Level Estimated

Login

Don't have an account? Register now (free) for customized features, flight alerts, and more!